KLM701 EHAM-SAEZ
Flight info
| Callsign | KLM701 |
|---|---|
| Flight time | N/A |
| Altitude | 30000 |
| Route | IDRID L980 LAM L179 UGBET/N0488F320 Q60 OKSAW DCT FELCA DCT FADZU DCT BANBA DCT LIMRI/M084F320 DCT 50N020W 45N030W 3930N03500W 33N040W 24N050W/M084F340 DCT HIGNZ/N0498F340 DCT 15N055W DCT PIPUV DCT USABO UL322 SALSU/N0492F360 UL322 BUVIP DCT KUMOS UL322 MNS/N0488F370 UZ6 UTPAM UZ87 ETAXA DCT ESDAG/N0490F360 DCT CIA/N0486F380 DCT AKRIL/N0487F370 UZ52 XOKUD UZ63 GRD/N0485F380 UM544 VAS UP526 GEMSU/N0480F390 UP526 DAYMA/N0482F380 UL324 KUKEN |
| Aircraft | B772/H-SDE2E3FGHIJ5LORVWXY/LB1D1 |
Departure
| Time | 2026-04-17 21:57 |
|---|---|
| Airport | Amsterdam Airport Schiphol (EHAM) |
Arrival
| Time | N/A |
|---|---|
| Airport | Ezeiza International Airport - Ministro Pistarini (SAEZ) |
| Time | Latitude | Longitude | Altitude | Speed | Heading |
|---|---|---|---|---|---|
| 2026-04-17 21:15 | 52.31029 | 4.76609 | 3 ft | 0 kts | 303° |
| 2026-04-17 21:45 | 52.31026 | 4.76617 | 4 ft | 4 kts | 302° |
| 2026-04-17 21:46 | 52.31012 | 4.76655 | 3 ft | 4 kts | 295° |
| 2026-04-17 21:46 | 52.31002 | 4.76696 | 5 ft | 4 kts | 284° |
| 2026-04-17 21:46 | 52.30999 | 4.76724 | 3 ft | 4 kts | 273° |
| 2026-04-17 21:46 | 52.31001 | 4.76766 | 3 ft | 4 kts | 255° |
| 2026-04-17 21:47 | 52.31013 | 4.76794 | 5 ft | 4 kts | 212° |
| 2026-04-17 21:47 | 52.31036 | 4.76818 | 4 ft | 4 kts | 213° |
| 2026-04-17 21:47 | 52.31058 | 4.76842 | 4 ft | 4 kts | 218° |
| 2026-04-17 21:47 | 52.31077 | 4.76872 | 3 ft | 4 kts | 240° |
| 2026-04-17 21:48 | 52.31086 | 4.76909 | 4 ft | 4 kts | 264° |
| 2026-04-17 21:48 | 52.31085 | 4.76952 | 3 ft | 4 kts | 277° |
| 2026-04-17 21:48 | 52.31083 | 4.76996 | 3 ft | 4 kts | 272° |
| 2026-04-17 21:48 | 52.31082 | 4.77040 | 3 ft | 4 kts | 273° |
| 2026-04-17 21:49 | 52.31081 | 4.77055 | 3 ft | 0 kts | 273° |
| 2026-04-17 21:50 | 52.31082 | 4.77046 | 3 ft | 3 kts | 273° |
| 2026-04-17 21:50 | 52.31094 | 4.76981 | 3 ft | 8 kts | 299° |
| 2026-04-17 21:51 | 52.31138 | 4.76946 | 3 ft | 8 kts | 9° |
| 2026-04-17 21:51 | 52.31186 | 4.76982 | 4 ft | 8 kts | 30° |
| 2026-04-17 21:51 | 52.31232 | 4.77029 | 3 ft | 8 kts | 33° |
| 2026-04-17 21:51 | 52.31277 | 4.77078 | 3 ft | 8 kts | 38° |
| 2026-04-17 21:52 | 52.31294 | 4.77160 | 3 ft | 8 kts | 88° |
| 2026-04-17 21:52 | 52.31293 | 4.77248 | 3 ft | 8 kts | 92° |
| 2026-04-17 21:52 | 52.31290 | 4.77336 | 3 ft | 8 kts | 93° |
| 2026-04-17 21:52 | 52.31287 | 4.77425 | 3 ft | 8 kts | 94° |
| 2026-04-17 21:53 | 52.31284 | 4.77513 | 3 ft | 8 kts | 93° |
| 2026-04-17 21:53 | 52.31276 | 4.77600 | 3 ft | 8 kts | 115° |
| 2026-04-17 21:53 | 52.31210 | 4.77636 | 3 ft | 13 kts | 180° |
| 2026-04-17 21:53 | 52.31099 | 4.77628 | 3 ft | 18 kts | 183° |
| 2026-04-17 21:54 | 52.30972 | 4.77617 | 3 ft | 18 kts | 183° |
| 2026-04-17 21:54 | 52.30845 | 4.77605 | 3 ft | 18 kts | 183° |
| 2026-04-17 21:54 | 52.30723 | 4.77593 | 3 ft | 15 kts | 184° |
| 2026-04-17 21:54 | 52.30628 | 4.77573 | 3 ft | 11 kts | 200° |
| 2026-04-17 21:55 | 52.30582 | 4.77557 | 3 ft | 7 kts | 176° |
| 2026-04-17 21:55 | 52.30523 | 4.77585 | 3 ft | 11 kts | 155° |
| 2026-04-17 21:55 | 52.30455 | 4.77640 | 3 ft | 11 kts | 152° |
| 2026-04-17 21:55 | 52.30401 | 4.77605 | 3 ft | 9 kts | 239° |
| 2026-04-17 21:56 | 52.30315 | 4.77379 | 1 ft | 53 kts | 238° |
| 2026-04-17 21:56 | 52.29982 | 4.76512 | 2 ft | 126 kts | 238° |
| 2026-04-17 21:56 | 52.29401 | 4.75001 | 4 ft | 187 kts | 238° |
| 2026-04-17 21:56 | 52.28662 | 4.73079 | 473 ft | 202 kts | 238° |
| 2026-04-17 21:57 | 52.27904 | 4.71149 | 1379 ft | 201 kts | 237° |
| 2026-04-17 21:57 | 52.27092 | 4.69261 | 2000 ft | 210 kts | 227° |
| 2026-04-17 21:57 | 52.26020 | 4.67509 | 2214 ft | 225 kts | 223° |
| 2026-04-17 21:57 | 52.24852 | 4.65713 | 2491 ft | 238 kts | 224° |
| 2026-04-17 21:58 | 52.23866 | 4.63500 | 2627 ft | 249 kts | 252° |
| 2026-04-17 21:58 | 52.23429 | 4.60729 | 2928 ft | 256 kts | 254° |
| 2026-04-17 21:58 | 52.22895 | 4.57944 | 3519 ft | 258 kts | 251° |
| 2026-04-17 21:58 | 52.22320 | 4.55180 | 4172 ft | 257 kts | 250° |
| 2026-04-17 21:59 | 52.21739 | 4.52416 | 4790 ft | 258 kts | 250° |
| 2026-04-17 21:59 | 52.21157 | 4.49651 | 5388 ft | 259 kts | 250° |
| 2026-04-17 21:59 | 52.20571 | 4.46872 | 5976 ft | 260 kts | 249° |
| 2026-04-17 21:59 | 52.19990 | 4.44127 | 6562 ft | 261 kts | 249° |
| 2026-04-17 22:00 | 52.19388 | 4.41278 | 7110 ft | 263 kts | 249° |
| 2026-04-17 22:00 | 52.18797 | 4.38485 | 7649 ft | 265 kts | 249° |
| 2026-04-17 22:00 | 52.18194 | 4.35634 | 8173 ft | 267 kts | 249° |
| 2026-04-17 22:00 | 52.17584 | 4.32766 | 8706 ft | 269 kts | 249° |
| 2026-04-17 22:01 | 52.16971 | 4.29873 | 9219 ft | 271 kts | 249° |
| 2026-04-17 22:01 | 52.16355 | 4.26957 | 9726 ft | 273 kts | 250° |
| 2026-04-17 22:01 | 52.15732 | 4.24023 | 10223 ft | 275 kts | 250° |
| 2026-04-17 22:01 | 52.15093 | 4.21039 | 10533 ft | 286 kts | 250° |
| 2026-04-17 22:02 | 52.14420 | 4.17887 | 10648 ft | 303 kts | 250° |
| 2026-04-17 22:02 | 52.13709 | 4.14554 | 10807 ft | 320 kts | 250° |
| 2026-04-17 22:02 | 52.12960 | 4.11044 | 10947 ft | 337 kts | 250° |
| 2026-04-17 22:02 | 52.12169 | 4.07359 | 11141 ft | 352 kts | 250° |
| 2026-04-17 22:03 | 52.11349 | 4.03540 | 11556 ft | 361 kts | 250° |
| 2026-04-17 22:03 | 52.10513 | 3.99651 | 12082 ft | 366 kts | 250° |
| 2026-04-17 22:03 | 52.09669 | 3.95730 | 12718 ft | 369 kts | 250° |
| 2026-04-17 22:03 | 52.08821 | 3.91791 | 13367 ft | 370 kts | 250° |
| 2026-04-17 22:04 | 52.07971 | 3.87835 | 13936 ft | 372 kts | 250° |
| 2026-04-17 22:04 | 52.07106 | 3.83849 | 14493 ft | 375 kts | 250° |
| 2026-04-17 22:04 | 52.06228 | 3.79841 | 15053 ft | 377 kts | 250° |
| 2026-04-17 22:04 | 52.05347 | 3.75811 | 15586 ft | 380 kts | 250° |
| 2026-04-17 22:05 | 52.04464 | 3.71758 | 16106 ft | 382 kts | 250° |
| 2026-04-17 22:05 | 52.03573 | 3.67682 | 16587 ft | 384 kts | 250° |
| 2026-04-17 22:05 | 52.02673 | 3.63577 | 17057 ft | 387 kts | 250° |
| 2026-04-17 22:05 | 52.01770 | 3.59452 | 17547 ft | 388 kts | 250° |
| 2026-04-17 22:06 | 52.00874 | 3.55376 | 18006 ft | 390 kts | 250° |
| 2026-04-17 22:06 | 51.99955 | 3.51227 | 18444 ft | 392 kts | 249° |
| 2026-04-17 22:06 | 51.98755 | 3.47215 | 18771 ft | 393 kts | 236° |
| 2026-04-17 22:06 | 51.97112 | 3.43719 | 19097 ft | 397 kts | 232° |
| 2026-04-17 22:07 | 51.95386 | 3.40144 | 19535 ft | 398 kts | 233° |
| 2026-04-17 22:07 | 51.93737 | 3.36613 | 19948 ft | 399 kts | 234° |
| 2026-04-17 22:07 | 51.92080 | 3.32994 | 20340 ft | 401 kts | 234° |
| 2026-04-17 22:07 | 51.90424 | 3.29343 | 20723 ft | 403 kts | 234° |
| 2026-04-17 22:08 | 51.88762 | 3.25683 | 21101 ft | 404 kts | 234° |
| 2026-04-17 22:08 | 51.87109 | 3.21995 | 21426 ft | 405 kts | 237° |
| 2026-04-17 22:08 | 51.85774 | 3.17977 | 21725 ft | 408 kts | 247° |
| 2026-04-17 22:08 | 51.84846 | 3.13636 | 22072 ft | 410 kts | 253° |
| 2026-04-17 22:09 | 51.84285 | 3.09108 | 22405 ft | 413 kts | 262° |
| 2026-04-17 22:09 | 51.84019 | 3.04482 | 22751 ft | 414 kts | 263° |
| 2026-04-17 22:09 | 51.83750 | 2.99833 | 23071 ft | 416 kts | 263° |
| 2026-04-17 22:09 | 51.83465 | 2.95167 | 23402 ft | 418 kts | 262° |
| 2026-04-17 22:10 | 51.83170 | 2.90482 | 23740 ft | 419 kts | 262° |
| 2026-04-17 22:10 | 51.82867 | 2.85786 | 24056 ft | 421 kts | 262° |
| 2026-04-17 22:10 | 51.82558 | 2.81069 | 24369 ft | 423 kts | 262° |
| 2026-04-17 22:10 | 51.82244 | 2.76343 | 24671 ft | 424 kts | 262° |
| 2026-04-17 22:11 | 51.81930 | 2.71596 | 24990 ft | 425 kts | 262° |
| 2026-04-17 22:11 | 51.81610 | 2.66836 | 25301 ft | 427 kts | 262° |
| 2026-04-17 22:11 | 51.81288 | 2.62124 | 25581 ft | 428 kts | 262° |
| 2026-04-17 22:11 | 51.80959 | 2.57340 | 25876 ft | 429 kts | 262° |
| 2026-04-17 22:12 | 51.80626 | 2.52544 | 26165 ft | 430 kts | 261° |
| 2026-04-17 22:12 | 51.80290 | 2.47730 | 26449 ft | 432 kts | 261° |
| 2026-04-17 22:12 | 51.79952 | 2.42900 | 26734 ft | 433 kts | 261° |
| 2026-04-17 22:12 | 51.79613 | 2.38064 | 27019 ft | 434 kts | 261° |
| 2026-04-17 22:13 | 51.79272 | 2.33219 | 27289 ft | 434 kts | 261° |
| 2026-04-17 22:13 | 51.78928 | 2.28362 | 27542 ft | 436 kts | 261° |
| 2026-04-17 22:13 | 51.78578 | 2.23497 | 27778 ft | 437 kts | 261° |
| 2026-04-17 22:13 | 51.78247 | 2.18603 | 28029 ft | 439 kts | 262° |
| 2026-04-17 22:14 | 51.77957 | 2.13692 | 28280 ft | 440 kts | 262° |
| 2026-04-17 22:14 | 51.77677 | 2.08774 | 28503 ft | 441 kts | 262° |
| 2026-04-17 22:14 | 51.77396 | 2.03837 | 28730 ft | 442 kts | 262° |
| 2026-04-17 22:14 | 51.77197 | 1.98879 | 28928 ft | 445 kts | 266° |
| 2026-04-17 22:15 | 51.77331 | 1.93878 | 29129 ft | 448 kts | 272° |
| 2026-04-17 22:15 | 51.77662 | 1.88871 | 29338 ft | 448 kts | 272° |
| 2026-04-17 22:15 | 51.77968 | 1.83858 | 29521 ft | 449 kts | 272° |
| 2026-04-17 22:15 | 51.78258 | 1.78830 | 29688 ft | 450 kts | 272° |
| 2026-04-17 22:16 | 51.78540 | 1.73787 | 29836 ft | 451 kts | 271° |
| 2026-04-17 22:16 | 51.78817 | 1.68737 | 30017 ft | 452 kts | 271° |
| 2026-04-17 22:16 | 51.79091 | 1.63669 | 30093 ft | 454 kts | 271° |
| 2026-04-17 22:17 | 51.79636 | 1.53488 | 30182 ft | 455 kts | 271° |
| 2026-04-17 22:17 | 51.80173 | 1.43326 | 30174 ft | 453 kts | 271° |
| 2026-04-17 22:18 | 51.80699 | 1.33196 | 30176 ft | 452 kts | 271° |